createdAt,value
2019-02-26T00:01:09.042Z,5.30
2019-02-26T00:03:37.805Z,5.30
2019-02-26T00:06:06.611Z,5.20
2019-02-26T00:08:41.862Z,5.20
2019-02-26T00:11:10.868Z,5.30
2019-02-26T00:13:39.697Z,5.20
2019-02-26T00:16:17.644Z,5.00
2019-02-26T00:18:45.864Z,4.90
2019-02-26T00:21:14.632Z,4.80
2019-02-26T00:23:51.464Z,4.70
2019-02-26T00:26:20.682Z,4.80
2019-02-26T00:28:50.470Z,4.90
2019-02-26T00:31:26.066Z,4.70
2019-02-26T00:33:55.866Z,4.70
2019-02-26T00:36:24.674Z,4.70
2019-02-26T00:39:00.621Z,4.70
2019-02-26T00:41:36.653Z,5.10
2019-02-26T00:44:21.073Z,5.30
2019-02-26T00:46:49.007Z,5.30
2019-02-26T00:49:19.112Z,5.10
2019-02-26T00:51:54.780Z,5.00
2019-02-26T00:54:24.470Z,5.10
2019-02-26T00:56:57.019Z,5.30
2019-02-26T00:59:31.468Z,5.30
2019-02-26T01:02:07.320Z,5.20
2019-02-26T01:04:44.694Z,5.10
2019-02-26T01:07:12.902Z,5.00
2019-02-26T01:09:41.745Z,4.90
2019-02-26T01:12:18.313Z,4.90
2019-02-26T01:14:48.178Z,4.80
2019-02-26T01:17:18.856Z,4.80
2019-02-26T01:19:54.782Z,4.70
2019-02-26T01:22:24.774Z,4.70
2019-02-26T01:24:54.275Z,4.60
2019-02-26T01:27:30.595Z,4.60
2019-02-26T01:30:00.418Z,4.70
2019-02-26T01:32:29.832Z,4.80
2019-02-26T01:35:05.927Z,4.80
2019-02-26T01:37:36.564Z,4.70
2019-02-26T01:40:16.377Z,4.60
2019-02-26T01:42:55.632Z,4.50
2019-02-26T01:45:37.000Z,4.40
2019-02-26T01:48:06.328Z,4.40
2019-02-26T01:50:37.861Z,4.30
2019-02-26T01:53:14.468Z,4.30
2019-02-26T01:55:50.570Z,4.40
2019-02-26T01:58:26.034Z,4.40
2019-02-26T02:00:55.462Z,4.30
2019-02-26T02:03:38.313Z,4.30
2019-02-26T02:06:10.640Z,4.30
2019-02-26T02:08:41.297Z,4.30
2019-02-26T02:11:14.989Z,4.30
2019-02-26T02:13:43.867Z,4.30
2019-02-26T02:16:12.625Z,4.30
2019-02-26T02:18:50.792Z,4.20
2019-02-26T02:21:19.046Z,4.00
2019-02-26T02:23:49.114Z,4.20
2019-02-26T02:26:24.789Z,4.20
2019-02-26T02:28:53.646Z,4.20
2019-02-26T02:31:24.579Z,4.30
2019-02-26T02:33:59.751Z,4.20
2019-02-26T02:36:28.536Z,4.20
2019-02-26T02:38:57.337Z,4.10
2019-02-26T02:41:32.921Z,4.10
2019-02-26T02:44:12.326Z,4.00
2019-02-26T02:46:51.957Z,3.90
2019-02-26T02:49:20.739Z,4.00
2019-02-26T02:51:49.539Z,3.80
2019-02-26T02:54:26.177Z,3.80
2019-02-26T02:56:56.857Z,3.70
2019-02-26T02:59:25.567Z,3.60
2019-02-26T03:02:00.733Z,3.60
2019-02-26T03:04:36.026Z,3.50
2019-02-26T03:07:11.561Z,3.50
2019-02-26T03:09:43.059Z,3.50
2019-02-26T03:12:11.496Z,3.50
2019-02-26T03:14:47.153Z,3.40
2019-02-26T03:17:18.211Z,3.40
2019-02-26T03:19:46.378Z,3.50
2019-02-26T03:22:21.862Z,3.40
2019-02-26T03:24:51.256Z,3.40
2019-02-26T03:27:21.651Z,3.40
2019-02-26T03:29:59.326Z,3.40
2019-02-26T03:32:27.766Z,3.30
2019-02-26T03:34:56.517Z,3.30
2019-02-26T03:37:34.176Z,3.30
2019-02-26T03:40:03.752Z,3.30
2019-02-26T03:42:33.832Z,3.30
2019-02-26T03:45:10.435Z,3.30
2019-02-26T03:47:45.722Z,3.20
2019-02-26T03:50:26.386Z,3.20
2019-02-26T03:52:52.058Z,3.20
2019-02-26T03:55:20.923Z,3.20
2019-02-26T03:57:58.540Z,3.20
2019-02-26T04:00:26.481Z,3.30
2019-02-26T04:02:55.529Z,3.20
2019-02-26T04:05:38.117Z,3.20
2019-02-26T04:08:06.996Z,3.30
2019-02-26T04:10:35.770Z,3.30
2019-02-26T04:13:11.632Z,3.30
2019-02-26T04:15:40.553Z,3.30
2019-02-26T04:18:09.311Z,3.30
2019-02-26T04:20:44.618Z,3.30
2019-02-26T04:23:16.517Z,3.30
2019-02-26T04:26:01.768Z,3.30
2019-02-26T04:28:48.015Z,3.30
2019-02-26T04:32:02.466Z,3.30
2019-02-26T04:35:06.369Z,3.30
2019-02-26T04:38:07.716Z,3.20
2019-02-26T04:41:06.867Z,3.20
2019-02-26T04:44:06.137Z,3.10
2019-02-26T04:47:05.892Z,3.10
2019-02-26T04:49:43.036Z,3.10
2019-02-26T04:52:14.326Z,3.20
2019-02-26T04:54:41.919Z,3.20
2019-02-26T04:57:17.727Z,3.20
2019-02-26T04:59:46.604Z,3.20
2019-02-26T05:02:15.360Z,3.20
2019-02-26T05:04:51.119Z,3.10
2019-02-26T05:07:26.643Z,3.10
2019-02-26T05:10:02.581Z,3.10
2019-02-26T05:12:34.069Z,3.10
2019-02-26T05:15:02.011Z,3.10
2019-02-26T05:17:37.678Z,3.20
2019-02-26T05:20:09.732Z,3.20
2019-02-26T05:22:36.993Z,3.20
2019-02-26T05:25:16.733Z,3.20
2019-02-26T05:27:45.209Z,3.20
2019-02-26T05:30:16.380Z,3.20
2019-02-26T05:32:51.922Z,3.10
2019-02-26T05:35:22.275Z,3.10
2019-02-26T05:37:50.968Z,3.10
2019-02-26T05:40:26.151Z,3.10
2019-02-26T05:42:56.148Z,3.10
2019-02-26T05:45:38.491Z,3.10
2019-02-26T05:48:16.178Z,3.00
2019-02-26T05:50:51.452Z,3.00
2019-02-26T05:53:20.290Z,3.00
2019-02-26T05:55:51.208Z,3.00
2019-02-26T05:58:26.363Z,3.00
2019-02-26T06:00:55.111Z,2.90
2019-02-26T06:03:23.827Z,2.90
2019-02-26T06:06:00.538Z,2.90
2019-02-26T06:08:36.441Z,2.90
2019-02-26T06:11:12.351Z,2.90
2019-02-26T06:13:43.168Z,2.90
2019-02-26T06:16:11.566Z,2.80
2019-02-26T06:18:49.112Z,2.80
2019-02-26T06:21:18.970Z,2.80
2019-02-26T06:24:01.817Z,2.80
2019-02-26T06:26:32.897Z,2.80
2019-02-26T06:29:01.042Z,2.70
2019-02-26T06:31:37.670Z,2.70
2019-02-26T06:34:08.760Z,2.70
2019-02-26T06:36:36.944Z,2.70
2019-02-26T06:39:13.343Z,2.70
2019-02-26T06:41:44.363Z,2.70
2019-02-26T06:44:13.257Z,2.80
2019-02-26T06:46:48.421Z,2.80
2019-02-26T06:49:24.588Z,2.80
2019-02-26T06:52:00.541Z,2.90
2019-02-26T06:54:31.800Z,2.90
2019-02-26T06:56:59.831Z,2.90
2019-02-26T06:59:38.639Z,3.00
2019-02-26T07:02:08.797Z,3.00
2019-02-26T07:04:38.143Z,3.10
2019-02-26T07:07:14.412Z,3.10
2019-02-26T07:09:49.833Z,3.20
2019-02-26T07:12:26.479Z,3.20
2019-02-26T07:14:57.510Z,3.30
2019-02-26T07:17:28.787Z,3.30
2019-02-26T07:20:03.389Z,3.40
2019-02-26T07:22:32.165Z,3.40
2019-02-26T07:25:00.934Z,3.40
2019-02-26T07:27:38.424Z,3.50
2019-02-26T07:30:08.131Z,3.60
2019-02-26T07:32:38.233Z,3.70
2019-02-26T07:35:16.726Z,3.70
2019-02-26T07:37:46.145Z,3.80
2019-02-26T07:40:16.026Z,4.00
2019-02-26T07:42:52.289Z,4.00
2019-02-26T07:45:29.639Z,4.10
2019-02-26T07:48:16.082Z,4.20
2019-02-26T07:50:45.727Z,4.20
2019-02-26T07:53:14.519Z,4.30
2019-02-26T07:55:50.986Z,4.40
2019-02-26T07:58:19.720Z,4.50
2019-02-26T08:00:49.821Z,4.40
2019-02-26T08:03:26.898Z,4.50
2019-02-26T08:05:56.317Z,4.70
2019-02-26T08:08:25.032Z,4.80
2019-02-26T08:11:08.010Z,4.90
2019-02-26T08:13:36.750Z,5.00
2019-02-26T08:16:05.510Z,5.10
2019-02-26T08:18:40.489Z,5.20
2019-02-26T08:21:09.205Z,5.30
2019-02-26T08:23:37.949Z,5.30
2019-02-26T08:26:15.513Z,5.40
2019-02-26T08:28:45.754Z,5.40
2019-02-26T08:31:16.065Z,5.50
2019-02-26T08:33:51.866Z,5.50
2019-02-26T08:36:20.752Z,5.50
2019-02-26T08:38:49.488Z,5.50
2019-02-26T08:41:25.207Z,5.60
2019-02-26T08:43:55.939Z,5.60
2019-02-26T08:46:39.673Z,5.60
2019-02-26T08:49:15.672Z,5.70
2019-02-26T08:51:51.083Z,5.80
2019-02-26T08:54:21.101Z,5.80
2019-02-26T08:56:50.462Z,5.90
2019-02-26T08:59:26.037Z,5.90
2019-02-26T09:01:54.847Z,6.10
2019-02-26T09:04:23.958Z,6.10
2019-02-26T09:07:01.724Z,6.20
2019-02-26T09:09:31.018Z,6.30
2019-02-26T09:12:15.217Z,6.30
2019-02-26T09:14:47.095Z,6.40
2019-02-26T09:17:18.762Z,6.50
2019-02-26T09:19:59.700Z,6.50
2019-02-26T09:22:26.072Z,6.60
2019-02-26T09:24:54.601Z,6.70
2019-02-26T09:27:32.107Z,6.80
2019-02-26T09:30:03.450Z,6.90
2019-02-26T09:32:32.730Z,7.10
2019-02-26T09:35:09.734Z,7.10
2019-02-26T09:37:38.686Z,7.30
2019-02-26T09:40:09.468Z,7.30
2019-02-26T09:42:46.844Z,7.40
2019-02-26T09:45:17.942Z,7.60
2019-02-26T09:48:01.173Z,7.60
2019-02-26T09:50:41.334Z,7.60
2019-02-26T09:53:17.018Z,7.70
2019-02-26T09:55:46.028Z,7.80
2019-02-26T09:58:17.678Z,7.80
2019-02-26T10:00:54.060Z,7.80
2019-02-26T10:03:23.145Z,8.00
2019-02-26T10:05:53.239Z,8.00
2019-02-26T10:08:30.512Z,8.10
2019-02-26T10:11:00.319Z,8.10
2019-02-26T10:13:44.461Z,8.30
2019-02-26T10:16:14.400Z,8.40
2019-02-26T10:18:44.931Z,8.50
2019-02-26T10:21:20.743Z,8.50
2019-02-26T10:23:51.630Z,8.50
2019-02-26T10:26:19.972Z,8.60
2019-02-26T10:29:02.350Z,8.70
2019-02-26T10:31:27.586Z,8.70
2019-02-26T10:33:56.576Z,8.80
2019-02-26T10:36:34.752Z,8.90
2019-02-26T10:39:02.938Z,8.90
2019-02-26T10:41:46.700Z,9.00
2019-02-26T10:44:15.594Z,9.00
2019-02-26T10:46:58.335Z,9.30
2019-02-26T10:49:33.741Z,9.30
2019-02-26T10:52:10.939Z,9.50
2019-02-26T10:54:41.155Z,9.60
2019-02-26T10:57:14.074Z,9.60
2019-02-26T10:59:48.037Z,9.50
2019-02-26T11:02:17.934Z,9.80
2019-02-26T11:21:57.610Z,10.00
2019-02-26T11:24:25.725Z,10.10
2019-02-26T11:26:53.898Z,10.00
2019-02-26T11:29:30.468Z,10.00
2019-02-26T11:32:01.699Z,10.10
2019-02-26T11:34:33.172Z,10.20
2019-02-26T11:37:08.856Z,10.50
2019-02-26T11:39:37.838Z,10.50
2019-02-26T11:42:06.559Z,10.30
2019-02-26T11:44:42.793Z,10.30
2019-02-26T11:47:18.334Z,10.30
2019-02-26T11:50:04.670Z,10.40
2019-02-26T11:52:33.810Z,10.50
2019-02-26T11:55:06.090Z,10.40
2019-02-26T11:57:43.325Z,10.30
2019-02-26T12:00:24.131Z,10.30
2019-02-26T12:02:52.898Z,10.30
2019-02-26T12:05:30.793Z,10.30
2019-02-26T12:07:56.354Z,10.20
2019-02-26T12:10:35.035Z,10.40
2019-02-26T12:13:03.299Z,10.50
2019-02-26T12:15:33.430Z,10.50
2019-02-26T12:18:10.122Z,10.50
2019-02-26T12:20:40.998Z,10.30
2019-02-26T12:23:22.722Z,10.30
2019-02-26T12:25:53.598Z,10.30
2019-02-26T12:28:22.225Z,10.30
2019-02-26T12:30:58.685Z,10.20
2019-02-26T12:33:32.193Z,10.30
2019-02-26T12:35:59.561Z,10.40
2019-02-26T12:38:41.692Z,10.60
2019-02-26T12:41:12.201Z,10.60
2019-02-26T12:43:43.365Z,10.60
2019-02-26T12:46:19.766Z,10.50
2019-02-26T12:49:11.724Z,10.60
2019-02-26T12:51:47.200Z,10.80
2019-02-26T12:54:15.934Z,11.00
2019-02-26T12:56:44.685Z,11.10
2019-02-26T12:59:19.969Z,11.00
2019-02-26T13:01:51.803Z,11.10
2019-02-26T13:04:21.437Z,11.00
2019-02-26T13:06:59.862Z,11.10
2019-02-26T13:09:29.063Z,11.20
2019-02-26T13:12:02.543Z,11.30
2019-02-26T13:14:36.361Z,11.20
2019-02-26T13:17:05.172Z,11.30
2019-02-26T13:19:36.990Z,11.20
2019-02-26T13:22:17.197Z,11.10
2019-02-26T13:24:51.387Z,11.10
2019-02-26T13:27:30.807Z,11.10
2019-02-26T13:30:01.714Z,11.20
2019-02-26T13:32:55.431Z,11.10
2019-02-26T13:35:12.232Z,11.20
2019-02-26T13:37:42.433Z,11.10
2019-02-26T13:40:20.094Z,11.00
2019-02-26T13:45:21.137Z,11.30
2019-02-26T13:48:01.120Z,11.30
2019-02-26T13:50:34.322Z,11.30
2019-02-26T13:53:15.952Z,11.30
2019-02-26T14:03:04.708Z,11.20
2019-02-26T14:05:38.079Z,11.30
2019-02-26T14:08:04.264Z,11.20
2019-02-26T14:10:42.609Z,11.30
2019-02-26T14:13:11.380Z,11.30
2019-02-26T14:15:40.292Z,11.10
2019-02-26T14:18:18.288Z,11.10
2019-02-26T14:20:47.076Z,11.20
2019-02-26T14:23:15.854Z,11.30
2019-02-26T14:25:57.772Z,11.20
2019-02-26T14:28:26.521Z,11.20
2019-02-26T14:30:55.353Z,11.20
2019-02-26T14:33:30.386Z,11.20
2019-02-26T14:35:59.111Z,11.20
2019-02-26T14:38:27.862Z,11.10
2019-02-26T14:41:02.985Z,11.20
2019-02-26T14:43:31.869Z,11.20
2019-02-26T14:46:00.699Z,11.30
2019-02-26T14:48:37.835Z,11.20
2019-02-26T14:51:13.338Z,11.30
2019-02-26T14:53:55.614Z,11.20
2019-02-26T14:56:25.144Z,11.30
2019-02-26T14:58:55.267Z,11.20
2019-02-26T15:01:31.201Z,11.10
2019-02-26T15:03:59.957Z,11.10
2019-02-26T15:06:28.663Z,11.00
2019-02-26T15:09:04.120Z,11.00
2019-02-26T15:11:32.897Z,11.00
2019-02-26T15:14:02.005Z,11.00
2019-02-26T15:16:37.137Z,11.00
2019-02-26T15:19:05.931Z,10.90
2019-02-26T15:21:34.759Z,10.90
2019-02-26T15:24:11.009Z,10.80
2019-02-26T15:26:46.815Z,10.80
2019-02-26T15:29:23.141Z,10.70
2019-02-26T15:31:51.921Z,10.70
2019-02-26T15:34:21.312Z,10.70
2019-02-26T15:36:57.880Z,10.50
2019-02-26T15:39:26.749Z,10.50
2019-02-26T15:41:55.600Z,10.50
2019-02-26T15:44:31.887Z,10.50
2019-02-26T15:47:02.360Z,10.50
2019-02-26T15:49:44.542Z,10.50
2019-02-26T15:52:22.224Z,10.50
2019-02-26T15:54:57.672Z,10.40
2019-02-26T15:57:28.555Z,10.40
2019-02-26T15:59:57.651Z,10.40
2019-02-26T16:02:33.847Z,10.40
2019-02-26T16:05:02.623Z,10.40
2019-02-26T16:07:31.368Z,10.30
2019-02-26T16:10:07.070Z,10.30
2019-02-26T16:12:36.005Z,10.30
2019-02-26T16:15:07.991Z,10.30
2019-02-26T16:17:42.567Z,10.30
2019-02-26T16:20:14.661Z,10.20
2019-02-26T16:22:43.832Z,10.30
2019-02-26T16:25:19.051Z,10.20
2019-02-26T16:27:54.616Z,10.20
2019-02-26T16:30:30.317Z,10.20
2019-02-26T16:32:59.096Z,10.10
2019-02-26T16:35:27.947Z,10.10
2019-02-26T16:38:03.115Z,10.00
2019-02-26T16:40:32.491Z,9.90
2019-02-26T16:43:01.345Z,9.80
2019-02-26T16:45:37.216Z,9.70
2019-02-26T16:48:06.114Z,9.70
2019-02-26T16:50:47.694Z,9.60
2019-02-26T16:53:23.547Z,9.60
2019-02-26T16:55:59.087Z,9.50
2019-02-26T16:58:29.295Z,9.40
2019-02-26T17:00:58.011Z,9.30
2019-02-26T17:03:34.744Z,9.20
2019-02-26T17:06:03.716Z,9.20
2019-02-26T17:08:33.030Z,9.10
2019-02-26T17:11:08.671Z,9.00
2019-02-26T17:13:38.170Z,8.90
2019-02-26T17:16:07.099Z,8.80
2019-02-26T17:18:42.883Z,8.80
2019-02-26T17:21:12.287Z,8.70
2019-02-26T17:23:41.104Z,8.80
2019-02-26T17:26:17.128Z,8.90
2019-02-26T17:28:52.684Z,8.70
2019-02-26T17:31:28.739Z,8.70
2019-02-26T17:33:59.528Z,8.70
2019-02-26T17:36:28.292Z,8.70
2019-02-26T17:39:03.180Z,8.80
2019-02-26T17:41:46.479Z,8.70
2019-02-26T17:44:28.211Z,8.80
2019-02-26T17:46:57.118Z,8.70
2019-02-26T17:49:25.906Z,8.60
2019-02-26T17:52:01.611Z,8.60
2019-02-26T17:54:37.398Z,8.50
2019-02-26T17:57:13.318Z,8.50
2019-02-26T17:59:42.103Z,8.40
2019-02-26T18:02:10.918Z,8.40
2019-02-26T18:04:46.505Z,8.40
2019-02-26T18:07:15.256Z,8.20
2019-02-26T18:09:43.994Z,8.10
2019-02-26T18:12:19.412Z,7.90
2019-02-26T18:14:48.495Z,7.70
2019-02-26T18:17:17.316Z,7.60
2019-02-26T18:19:52.379Z,7.50
2019-02-26T18:22:21.897Z,7.40
2019-02-26T18:24:51.390Z,7.30
2019-02-26T18:27:27.716Z,7.20
2019-02-26T18:30:04.760Z,7.10
2019-02-26T18:32:40.460Z,6.90
2019-02-26T18:35:09.829Z,6.90
2019-02-26T18:37:46.228Z,6.80
2019-02-26T18:40:15.841Z,6.80
2019-02-26T18:42:44.848Z,6.70
2019-02-26T18:45:16.248Z,6.60
2019-02-26T18:47:51.515Z,6.50
2019-02-26T18:50:20.331Z,6.30
2019-02-26T18:53:05.407Z,6.20
2019-02-26T18:55:41.097Z,6.30
2019-02-26T18:58:16.377Z,6.40
2019-02-26T19:00:46.121Z,6.20
2019-02-26T19:03:15.024Z,6.00
2019-02-26T19:05:53.815Z,5.90
2019-02-26T19:08:21.225Z,5.80
2019-02-26T19:10:50.850Z,5.80
2019-02-26T19:13:28.193Z,5.70
2019-02-26T19:15:57.124Z,5.60
2019-02-26T19:18:25.907Z,5.60
2019-02-26T19:21:01.473Z,5.50
2019-02-26T19:23:32.336Z,5.50
2019-02-26T19:26:01.132Z,5.30
2019-02-26T19:28:36.862Z,5.30
2019-02-26T19:31:12.445Z,5.20
2019-02-26T19:33:48.069Z,5.30
2019-02-26T19:36:17.039Z,5.20
2019-02-26T19:38:45.850Z,5.10
2019-02-26T19:41:23.305Z,5.00
2019-02-26T19:43:52.095Z,5.10
2019-02-26T19:46:21.094Z,5.10
2019-02-26T19:48:56.358Z,5.00
2019-02-26T19:51:26.530Z,4.90
2019-02-26T19:54:09.590Z,4.90
2019-02-26T19:56:45.149Z,5.00
2019-02-26T19:59:21.187Z,4.90
2019-02-26T20:01:50.869Z,4.90
2019-02-26T20:04:19.762Z,4.90
2019-02-26T20:06:58.439Z,4.80
2019-02-26T20:09:25.599Z,4.70
2019-02-26T20:11:56.236Z,4.60
2019-02-26T20:14:33.352Z,4.60
2019-02-26T20:17:11.624Z,4.60
2019-02-26T20:19:33.275Z,4.60
2019-02-26T20:22:09.035Z,4.60
2019-02-26T20:24:37.864Z,4.60
2019-02-26T20:27:06.738Z,4.40
2019-02-26T20:29:43.296Z,4.40
2019-02-26T20:32:20.197Z,4.20
2019-02-26T20:34:55.422Z,4.20
2019-02-26T20:37:26.130Z,4.10
2019-02-26T20:39:54.864Z,4.00
2019-02-26T20:42:30.612Z,3.90
2019-02-26T20:44:59.390Z,4.00
2019-02-26T20:47:31.291Z,3.90
2019-02-26T20:50:05.072Z,3.80
2019-02-26T20:52:40.346Z,3.80
2019-02-26T20:55:23.943Z,3.60
2019-02-26T20:57:56.630Z,3.70
2019-02-26T21:00:26.003Z,3.70
2019-02-26T21:03:01.753Z,3.70
2019-02-26T21:05:33.661Z,3.70
2019-02-26T21:08:02.570Z,3.50
2019-02-26T21:10:38.125Z,3.40
2019-02-26T21:13:06.941Z,3.40
2019-02-26T21:15:35.770Z,3.30
2019-02-26T21:18:11.444Z,3.20
2019-02-26T21:20:41.140Z,3.10
2019-02-26T21:23:10.816Z,3.10
2019-02-26T21:25:47.516Z,3.10
2019-02-26T21:28:16.135Z,3.20
2019-02-26T21:30:45.919Z,3.20
2019-02-26T21:33:30.778Z,3.00
2019-02-26T21:36:01.636Z,3.20
2019-02-26T21:38:30.434Z,3.30
2019-02-26T21:41:06.215Z,3.20
2019-02-26T21:43:35.565Z,3.20
2019-02-26T21:46:05.289Z,3.00
2019-02-26T21:48:40.831Z,3.00
2019-02-26T21:51:10.749Z,2.80
2019-02-26T21:53:52.204Z,2.90
2019-02-26T21:56:27.974Z,3.00
2019-02-26T21:59:03.422Z,2.90
2019-02-26T22:01:32.268Z,2.70
2019-02-26T22:04:01.019Z,2.70
2019-02-26T22:06:35.888Z,2.60
2019-02-26T22:09:06.363Z,2.40
2019-02-26T22:11:35.232Z,2.40
2019-02-26T22:14:10.949Z,2.30
2019-02-26T22:16:39.678Z,2.40
2019-02-26T22:19:08.464Z,2.40
2019-02-26T22:21:43.323Z,2.40
2019-02-26T22:24:12.051Z,2.20
2019-02-26T22:26:42.230Z,2.20
2019-02-26T22:29:18.101Z,2.10
2019-02-26T22:31:46.878Z,2.10
2019-02-26T22:34:29.731Z,2.00
2019-02-26T22:36:58.456Z,2.00
2019-02-26T22:39:27.231Z,1.90
2019-02-26T22:42:02.815Z,2.00
2019-02-26T22:44:31.545Z,1.90
2019-02-26T22:47:04.662Z,1.80
2019-02-26T22:49:39.983Z,1.80
2019-02-26T22:52:08.695Z,2.10
2019-02-26T22:54:50.070Z,2.20
2019-02-26T22:57:27.557Z,2.30
2019-02-26T23:00:02.877Z,2.50
2019-02-26T23:02:31.774Z,2.50
2019-02-26T23:05:00.489Z,2.80
2019-02-26T23:07:39.175Z,2.70
2019-02-26T23:10:06.357Z,2.80
2019-02-26T23:12:35.151Z,2.80
2019-02-26T23:15:11.971Z,2.40
2019-02-26T23:17:41.493Z,2.40
2019-02-26T23:20:26.122Z,2.60
2019-02-26T23:22:54.915Z,2.90
2019-02-26T23:25:23.652Z,2.60
2019-02-26T23:27:59.849Z,2.40
2019-02-26T23:30:28.577Z,2.40
2019-02-26T23:32:57.468Z,2.20
2019-02-26T23:35:39.799Z,2.00
2019-02-26T23:38:09.171Z,1.80
2019-02-26T23:40:38.174Z,1.70
2019-02-26T23:43:13.568Z,1.60
2019-02-26T23:45:42.281Z,1.60
2019-02-26T23:48:11.040Z,1.60
2019-02-26T23:50:47.298Z,1.40
2019-02-26T23:53:16.706Z,1.40
2019-02-26T23:55:59.535Z,1.20
2019-02-26T23:58:35.209Z,1.20
